Midnight Wolf — HO7969 — position and weather

sailwx.info

Track history (hours):
 
Tides and Currents Weather Stations Pressure Air Temp Water Temp Dewpoint Dewpoint Depression Visibility Wind Speed Wind Dir Waves Ship Positions

Midnight Wolf

Last reported at 2014-Aug-26 06:33 UTC. Time now 2014-Aug-30 00:28 UTC.
Position N 18°11' W 063°32'.

Length 51 m; draft 3 m.

Type: Cargo ship. MMSI: 351880000.

Date/timePositionNaut miles runAvg speedWind from/ knotsBaromVisibWave heightAir tempDewpointWater temp
2014-Aug-26 06:33N 18°11' W 063°32'9 9.4
2014-Aug-26 05:33N 18°09' W 063°22'9 9.3
2014-Aug-26 04:32N 18°07' W 063°12'7 5.3
2014-Aug-26 03:11N 18°05' W 063°05'0 0.0
2014-Aug-26 02:33N 18°05' W 063°05'0 0.0
2014-Aug-26 01:29N 18°05' W 063°05'7 7.5
2014-Aug-26 00:32N 18°10' W 063°11'2 0.7
2014-Aug-25 21:16N 18°12' W 063°12'6 8.9
2014-Aug-25 20:33N 18°12' W 063°18'  
2014-Aug-19 01:33N 18°08' W 063°31'9 9.3
2014-Aug-19 00:32N 18°07' W 063°22'11 9.2
2014-Aug-18 23:21N 18°05' W 063°10'5 4.7
2014-Aug-18 22:20N 18°05' W 063°05'0 0.0
2014-Aug-18 21:17N 18°05' W 063°05'0 0.0
2014-Aug-18 20:32N 18°05' W 063°05'0 0.0
2014-Aug-18 19:10N 18°05' W 063°05'5 7.3
2014-Aug-18 18:27N 18°06' W 063°11'8 8.8
2014-Aug-18 17:33N 18°06' W 063°19'  
Track history (hours):
 
Tides and Currents Weather Stations Pressure Air Temp Water Temp Dewpoint Dewpoint Depression Visibility Wind Speed Wind Dir Waves Ship Positions

Midnight Wolf

Last reported at 2014-Aug-26 06:33 UTC. Time now 2014-Aug-30 00:28 UTC.
Position N 18°11' W 063°32'.

Length 51 m; draft 3 m.

Type: Cargo ship. MMSI: 351880000.

Date/timePositionNaut miles runAvg speedWind from/ knotsBaromVisibWave heightAir tempDewpointWater temp
2014-Aug-26 06:33N 18°11' W 063°32'9 9.4
2014-Aug-26 05:33N 18°09' W 063°22'9 9.3
2014-Aug-26 04:32N 18°07' W 063°12'7 5.3
2014-Aug-26 03:11N 18°05' W 063°05'0 0.0
2014-Aug-26 02:33N 18°05' W 063°05'0 0.0
2014-Aug-26 01:29N 18°05' W 063°05'7 7.5
2014-Aug-26 00:32N 18°10' W 063°11'2 0.7
2014-Aug-25 21:16N 18°12' W 063°12'6 8.9
2014-Aug-25 20:33N 18°12' W 063°18'  
2014-Aug-19 01:33N 18°08' W 063°31'9 9.3
2014-Aug-19 00:32N 18°07' W 063°22'11 9.2
2014-Aug-18 23:21N 18°05' W 063°10'5 4.7
2014-Aug-18 22:20N 18°05' W 063°05'0 0.0
2014-Aug-18 21:17N 18°05' W 063°05'0 0.0
2014-Aug-18 20:32N 18°05' W 063°05'0 0.0
2014-Aug-18 19:10N 18°05' W 063°05'5 7.3
2014-Aug-18 18:27N 18°06' W 063°11'8 8.8
2014-Aug-18 17:33N 18°06' W 063°19'  

Dump ship's entire track history